sensor_id;sensor_type;location;lat;lon;timestamp;pressure;altitude;pressure_sealevel;temperature;humidity
41218;BME280;26950;50.960;7.138;2024-02-26T00:01:57;98789.59;;;12.16;56.38
41218;BME280;26950;50.960;7.138;2024-02-26T00:04:24;98788.66;;;12.23;56.56
41218;BME280;26950;50.960;7.138;2024-02-26T00:06:50;98793.13;;;12.15;56.67
41218;BME280;26950;50.960;7.138;2024-02-26T00:09:19;98781.66;;;12.22;56.24
41218;BME280;26950;50.960;7.138;2024-02-26T00:11:45;98782.50;;;12.27;58.35
41218;BME280;26950;50.960;7.138;2024-02-26T00:14:12;98785.13;;;12.29;59.05
41218;BME280;26950;50.960;7.138;2024-02-26T00:16:39;98784.53;;;11.92;57.91
41218;BME280;26950;50.960;7.138;2024-02-26T00:19:07;98785.25;;;12.15;58.24
41218;BME280;26950;50.960;7.138;2024-02-26T00:21:34;98776.47;;;12.13;57.85
41218;BME280;26950;50.960;7.138;2024-02-26T00:24:00;98777.34;;;12.17;57.52
41218;BME280;26950;50.960;7.138;2024-02-26T00:26:27;98766.94;;;12.03;56.89
41218;BME280;26950;50.960;7.138;2024-02-26T00:28:54;98780.91;;;12.06;58.52
41218;BME280;26950;50.960;7.138;2024-02-26T00:31:20;98773.84;;;12.13;59.50
41218;BME280;26950;50.960;7.138;2024-02-26T00:33:47;98774.69;;;12.18;58.63
41218;BME280;26950;50.960;7.138;2024-02-26T00:36:14;98769.44;;;12.20;58.77
41218;BME280;26950;50.960;7.138;2024-02-26T00:38:41;98770.38;;;12.09;58.47
41218;BME280;26950;50.960;7.138;2024-02-26T00:41:08;98757.25;;;12.09;58.75
41218;BME280;26950;50.960;7.138;2024-02-26T00:43:34;98753.69;;;12.15;58.34
41218;BME280;26950;50.960;7.138;2024-02-26T00:46:03;98753.72;;;12.10;57.86
41218;BME280;26950;50.960;7.138;2024-02-26T00:48:30;98751.97;;;12.06;58.11
41218;BME280;26950;50.960;7.138;2024-02-26T00:50:56;98747.69;;;11.98;57.78
41218;BME280;26950;50.960;7.138;2024-02-26T00:53:24;98752.94;;;12.01;57.41
41218;BME280;26950;50.960;7.138;2024-02-26T00:55:51;98754.69;;;11.99;58.42
41218;BME280;26950;50.960;7.138;2024-02-26T00:58:17;98738.09;;;11.95;58.66
41218;BME280;26950;50.960;7.138;2024-02-26T01:00:44;98750.28;;;12.02;58.42
41218;BME280;26950;50.960;7.138;2024-02-26T01:03:10;98760.78;;;12.07;56.63
41218;BME280;26950;50.960;7.138;2024-02-26T01:05:37;98755.59;;;11.96;57.71
41218;BME280;26950;50.960;7.138;2024-02-26T01:08:04;98756.50;;;11.87;57.18
41218;BME280;26950;50.960;7.138;2024-02-26T01:10:32;98767.97;;;11.74;57.48
41218;BME280;26950;50.960;7.138;2024-02-26T01:12:59;98760.06;;;11.79;58.26
41218;BME280;26950;50.960;7.138;2024-02-26T01:15:25;98745.16;;;11.81;57.62
41218;BME280;26950;50.960;7.138;2024-02-26T01:17:52;98754.00;;;11.71;58.25
41218;BME280;26950;50.960;7.138;2024-02-26T01:20:19;98763.59;;;11.76;58.34
41218;BME280;26950;50.960;7.138;2024-02-26T01:22:46;98753.91;;;11.89;58.95
41218;BME280;26950;50.960;7.138;2024-02-26T01:25:12;98749.47;;;11.96;59.09
41218;BME280;26950;50.960;7.138;2024-02-26T01:27:40;98748.59;;;11.95;59.13
41218;BME280;26950;50.960;7.138;2024-02-26T01:30:10;98746.00;;;11.87;59.75
41218;BME280;26950;50.960;7.138;2024-02-26T01:32:36;98743.41;;;11.78;60.35
41218;BME280;26950;50.960;7.138;2024-02-26T01:35:03;98750.41;;;11.85;60.01
41218;BME280;26950;50.960;7.138;2024-02-26T01:37:33;98758.34;;;11.76;61.61
41218;BME280;26950;50.960;7.138;2024-02-26T01:39:59;98754.00;;;11.71;61.53
41218;BME280;26950;50.960;7.138;2024-02-26T01:42:29;98747.03;;;11.60;62.96
41218;BME280;26950;50.960;7.138;2024-02-26T01:44:57;98743.59;;;11.52;63.32
41218;BME280;26950;50.960;7.138;2024-02-26T01:47:24;98736.50;;;11.62;64.03
41218;BME280;26950;50.960;7.138;2024-02-26T01:49:52;98733.84;;;11.68;64.07
41218;BME280;26950;50.960;7.138;2024-02-26T01:52:19;98735.63;;;11.69;64.07
41218;BME280;26950;50.960;7.138;2024-02-26T01:54:46;98731.25;;;11.65;63.99
41218;BME280;26950;50.960;7.138;2024-02-26T01:57:13;98737.50;;;11.46;65.53
41218;BME280;26950;50.960;7.138;2024-02-26T01:59:41;98713.03;;;11.41;66.33
41218;BME280;26950;50.960;7.138;2024-02-26T02:02:10;98725.19;;;11.54;66.14
41218;BME280;26950;50.960;7.138;2024-02-26T02:04:38;98726.88;;;11.64;66.41
41218;BME280;26950;50.960;7.138;2024-02-26T02:07:05;98719.03;;;11.58;66.58
41218;BME280;26950;50.960;7.138;2024-02-26T02:09:32;98724.34;;;11.49;67.34
41218;BME280;26950;50.960;7.138;2024-02-26T02:11:59;98721.69;;;11.53;68.04
41218;BME280;26950;50.960;7.138;2024-02-26T02:14:26;98723.41;;;11.56;68.04
41218;BME280;26950;50.960;7.138;2024-02-26T02:16:53;98718.19;;;11.57;68.04
41218;BME280;26950;50.960;7.138;2024-02-26T02:19:21;98719.91;;;11.63;67.88
41218;BME280;26950;50.960;7.138;2024-02-26T02:21:48;98707.75;;;11.42;68.50
41218;BME280;26950;50.960;7.138;2024-02-26T02:24:15;98725.19;;;11.55;68.63
41218;BME280;26950;50.960;7.138;2024-02-26T02:26:41;98727.84;;;11.48;69.70
41218;BME280;26950;50.960;7.138;2024-02-26T02:29:08;98720.03;;;11.39;69.23
41218;BME280;26950;50.960;7.138;2024-02-26T02:31:35;98714.75;;;11.45;69.58
41218;BME280;26950;50.960;7.138;2024-02-26T02:34:02;98716.50;;;11.43;69.77
41218;BME280;26950;50.960;7.138;2024-02-26T02:36:29;98718.25;;;11.44;69.18
41218;BME280;26950;50.960;7.138;2024-02-26T02:38:57;98714.84;;;11.28;70.17
41218;BME280;26950;50.960;7.138;2024-02-26T02:41:23;98722.69;;;11.31;70.42
41218;BME280;26950;50.960;7.138;2024-02-26T02:43:51;98718.28;;;11.41;70.22
41218;BME280;26950;50.960;7.138;2024-02-26T02:46:19;98720.00;;;11.42;69.58
41218;BME280;26950;50.960;7.138;2024-02-26T02:48:46;98721.78;;;11.41;70.09
41218;BME280;26950;50.960;7.138;2024-02-26T02:51:12;98728.78;;;11.36;70.78
41218;BME280;26950;50.960;7.138;2024-02-26T02:53:39;98710.28;;;11.56;70.10
41218;BME280;26950;50.960;7.138;2024-02-26T02:56:07;98719.97;;;11.52;70.15
41218;BME280;26950;50.960;7.138;2024-02-26T02:58:33;98714.63;;;11.63;70.00
41218;BME280;26950;50.960;7.138;2024-02-26T03:01:00;98708.47;;;11.62;69.90
41218;BME280;26950;50.960;7.138;2024-02-26T03:03:26;98714.69;;;11.57;70.38
41218;BME280;26950;50.960;7.138;2024-02-26T03:05:54;98709.44;;;11.49;70.32
41218;BME280;26950;50.960;7.138;2024-02-26T03:08:20;98713.94;;;11.38;70.81
41218;BME280;26950;50.960;7.138;2024-02-26T03:10:47;98708.69;;;11.30;71.93
41218;BME280;26950;50.960;7.138;2024-02-26T03:13:15;98719.22;;;11.29;71.82
41218;BME280;26950;50.960;7.138;2024-02-26T03:15:41;98717.47;;;11.29;71.44
41218;BME280;26950;50.960;7.138;2024-02-26T03:18:08;98713.13;;;11.25;72.26
41218;BME280;26950;50.960;7.138;2024-02-26T03:20:35;98717.44;;;11.34;72.32
41218;BME280;26950;50.960;7.138;2024-02-26T03:23:02;98718.28;;;11.38;73.03
41218;BME280;26950;50.960;7.138;2024-02-26T03:25:28;98713.09;;;11.28;73.76
41218;BME280;26950;50.960;7.138;2024-02-26T03:27:55;98712.25;;;11.22;73.56
41218;BME280;26950;50.960;7.138;2024-02-26T03:30:23;98706.97;;;11.28;74.39
41218;BME280;26950;50.960;7.138;2024-02-26T03:32:49;98714.84;;;11.32;74.41
41218;BME280;26950;50.960;7.138;2024-02-26T03:35:16;98709.63;;;11.19;75.38
41218;BME280;26950;50.960;7.138;2024-02-26T03:37:42;98709.63;;;11.26;75.97
41218;BME280;26950;50.960;7.138;2024-02-26T03:40:10;98700.88;;;11.21;75.28
41218;BME280;26950;50.960;7.138;2024-02-26T03:42:38;98706.97;;;11.28;75.31
41218;BME280;26950;50.960;7.138;2024-02-26T03:45:06;98706.19;;;11.14;76.46
41218;BME280;26950;50.960;7.138;2024-02-26T03:47:34;98708.78;;;11.12;76.95
41218;BME280;26950;50.960;7.138;2024-02-26T03:50:00;98715.78;;;11.19;77.61
41218;BME280;26950;50.960;7.138;2024-02-26T03:52:27;98707.88;;;11.21;77.91
41218;BME280;26950;50.960;7.138;2024-02-26T03:54:53;98713.09;;;11.27;77.78
41218;BME280;26950;50.960;7.138;2024-02-26T03:57:20;98712.19;;;11.34;77.28
41218;BME280;26950;50.960;7.138;2024-02-26T03:59:46;98713.91;;;11.37;76.54
41218;BME280;26950;50.960;7.138;2024-02-26T04:02:13;98712.22;;;11.29;77.12
41218;BME280;26950;50.960;7.138;2024-02-26T04:04:41;98718.38;;;11.25;77.82
41218;BME280;26950;50.960;7.138;2024-02-26T04:07:07;98718.34;;;11.31;77.54
41218;BME280;26950;50.960;7.138;2024-02-26T04:09:34;98718.31;;;11.34;76.94
41218;BME280;26950;50.960;7.138;2024-02-26T04:12:00;98716.56;;;11.30;76.28
41218;BME280;26950;50.960;7.138;2024-02-26T04:14:27;98726.25;;;11.27;77.48
41218;BME280;26950;50.960;7.138;2024-02-26T04:16:53;98728.84;;;11.31;77.79
41218;BME280;26950;50.960;7.138;2024-02-26T04:19:20;98739.28;;;11.41;77.54
41218;BME280;26950;50.960;7.138;2024-02-26T04:21:48;98739.28;;;11.38;77.60
41218;BME280;26950;50.960;7.138;2024-02-26T04:24:14;98745.38;;;11.46;77.43
41218;BME280;26950;50.960;7.138;2024-02-26T04:26:41;98752.38;;;11.48;77.89
41218;BME280;26950;50.960;7.138;2024-02-26T04:29:08;98747.97;;;11.49;77.31
41218;BME280;26950;50.960;7.138;2024-02-26T04:31:34;98753.28;;;11.46;77.53
41218;BME280;26950;50.960;7.138;2024-02-26T04:34:01;98755.94;;;11.40;78.01
41218;BME280;26950;50.960;7.138;2024-02-26T04:36:27;98765.56;;;11.39;78.73
41218;BME280;26950;50.960;7.138;2024-02-26T04:38:55;98754.19;;;11.39;78.48
41218;BME280;26950;50.960;7.138;2024-02-26T04:41:22;98774.34;;;11.30;78.70
41218;BME280;26950;50.960;7.138;2024-02-26T04:43:48;98768.22;;;11.30;79.22
41218;BME280;26950;50.960;7.138;2024-02-26T04:46:16;98770.84;;;11.28;79.22
41218;BME280;26950;50.960;7.138;2024-02-26T04:48:42;98771.69;;;11.35;79.95
41218;BME280;26950;50.960;7.138;2024-02-26T04:51:11;98780.47;;;11.32;80.55
41218;BME280;26950;50.960;7.138;2024-02-26T04:53:37;98781.34;;;11.30;81.97
41218;BME280;26950;50.960;7.138;2024-02-26T04:56:06;98781.38;;;11.25;81.93
41218;BME280;26950;50.960;7.138;2024-02-26T04:58:32;98777.88;;;11.23;81.40
41218;BME280;26950;50.960;7.138;2024-02-26T05:00:59;98769.13;;;11.21;81.94
41218;BME280;26950;50.960;7.138;2024-02-26T05:03:26;98775.28;;;11.17;81.77
41218;BME280;26950;50.960;7.138;2024-02-26T05:05:52;98776.13;;;11.27;82.38
41218;BME280;26950;50.960;7.138;2024-02-26T05:08:19;98777.88;;;11.26;82.16
41218;BME280;26950;50.960;7.138;2024-02-26T05:10:45;98771.72;;;11.24;81.75
41218;BME280;26950;50.960;7.138;2024-02-26T05:13:12;98770.06;;;11.10;82.88
41218;BME280;26950;50.960;7.138;2024-02-26T05:15:40;98769.16;;;11.15;82.72
41218;BME280;26950;50.960;7.138;2024-02-26T05:18:07;98764.81;;;11.14;83.03
41218;BME280;26950;50.960;7.138;2024-02-26T05:20:34;98763.94;;;11.14;84.00
41218;BME280;26950;50.960;7.138;2024-02-26T05:23:01;98767.41;;;11.17;83.55
41218;BME280;26950;50.960;7.138;2024-02-26T05:25:29;98763.88;;;11.23;83.24
41218;BME280;26950;50.960;7.138;2024-02-26T05:27:55;98760.34;;;11.28;83.32
41218;BME280;26950;50.960;7.138;2024-02-26T05:30:23;98763.84;;;11.29;83.33
41218;BME280;26950;50.960;7.138;2024-02-26T05:32:52;98763.91;;;11.20;83.65
41218;BME280;26950;50.960;7.138;2024-02-26T05:35:18;98771.72;;;11.32;83.52
41218;BME280;26950;50.960;7.138;2024-02-26T05:37:45;98780.47;;;11.28;83.50
41218;BME280;26950;50.960;7.138;2024-02-26T05:40:12;98782.22;;;11.32;83.36
41218;BME280;26950;50.960;7.138;2024-02-26T05:42:39;98781.34;;;11.31;83.66
41218;BME280;26950;50.960;7.138;2024-02-26T05:45:06;98782.25;;;11.27;83.85
41218;BME280;26950;50.960;7.138;2024-02-26T05:47:35;98793.63;;;11.22;83.96
41218;BME280;26950;50.960;7.138;2024-02-26T05:50:08;98792.78;;;11.12;83.97
41218;BME280;26950;50.960;7.138;2024-02-26T05:52:36;98792.78;;;11.21;84.16
41218;BME280;26950;50.960;7.138;2024-02-26T05:55:03;98801.47;;;11.32;83.77
41218;BME280;26950;50.960;7.138;2024-02-26T05:57:30;98804.09;;;11.29;83.52
41218;BME280;26950;50.960;7.138;2024-02-26T05:59:56;98799.75;;;11.24;83.92
41218;BME280;26950;50.960;7.138;2024-02-26T06:02:25;98801.50;;;11.22;83.33
41218;BME280;26950;50.960;7.138;2024-02-26T06:04:53;98805.00;;;11.27;83.12
41218;BME280;26950;50.960;7.138;2024-02-26T06:07:20;98804.16;;;11.20;84.04
41218;BME280;26950;50.960;7.138;2024-02-26T06:09:46;98809.47;;;11.02;84.48
41218;BME280;26950;50.960;7.138;2024-02-26T06:12:13;98808.56;;;11.00;85.25
41218;BME280;26950;50.960;7.138;2024-02-26T06:14:41;98817.31;;;11.03;84.93
41218;BME280;26950;50.960;7.138;2024-02-26T06:17:08;98808.59;;;10.97;85.52
41218;BME280;26950;50.960;7.138;2024-02-26T06:19:34;98825.22;;;10.96;85.48
41218;BME280;26950;50.960;7.138;2024-02-26T06:22:02;98819.09;;;10.97;85.89
41218;BME280;26950;50.960;7.138;2024-02-26T06:24:29;98820.84;;;10.98;86.26
41218;BME280;26950;50.960;7.138;2024-02-26T06:26:55;98819.97;;;11.06;85.65
41218;BME280;26950;50.960;7.138;2024-02-26T06:29:22;98817.31;;;11.03;85.54
41218;BME280;26950;50.960;7.138;2024-02-26T06:31:48;98826.06;;;11.04;85.76
41218;BME280;26950;50.960;7.138;2024-02-26T06:34:16;98829.56;;;11.06;85.38
41218;BME280;26950;50.960;7.138;2024-02-26T06:36:42;98829.53;;;11.12;83.98
41218;BME280;26950;50.960;7.138;2024-02-26T06:39:10;98833.97;;;10.95;85.07
41218;BME280;26950;50.960;7.138;2024-02-26T06:41:38;98832.25;;;10.88;85.90
41218;BME280;26950;50.960;7.138;2024-02-26T06:44:04;98844.47;;;10.86;87.44
41218;BME280;26950;50.960;7.138;2024-02-26T06:46:31;98843.59;;;10.93;87.39
41218;BME280;26950;50.960;7.138;2024-02-26T06:48:57;98854.09;;;10.96;86.08
41218;BME280;26950;50.960;7.138;2024-02-26T06:51:24;98856.75;;;10.77;87.77
41218;BME280;26950;50.960;7.138;2024-02-26T06:53:51;98861.97;;;10.96;86.65
41218;BME280;26950;50.960;7.138;2024-02-26T06:56:19;98864.59;;;10.94;86.22
41218;BME280;26950;50.960;7.138;2024-02-26T06:58:45;98862.84;;;10.95;86.29
41218;BME280;26950;50.960;7.138;2024-02-26T07:01:12;98871.59;;;10.95;86.74
41218;BME280;26950;50.960;7.138;2024-02-26T07:03:40;98862.84;;;10.90;87.70
41218;BME280;26950;50.960;7.138;2024-02-26T07:06:06;98854.97;;;10.89;86.70
41218;BME280;26950;50.960;7.138;2024-02-26T07:08:33;98863.72;;;10.85;87.32
41218;BME280;26950;50.960;7.138;2024-02-26T07:11:00;98871.63;;;10.82;87.94
41218;BME280;26950;50.960;7.138;2024-02-26T07:13:28;98870.72;;;10.83;87.31
41218;BME280;26950;50.960;7.138;2024-02-26T07:15:55;98872.47;;;10.90;87.31
41218;BME280;26950;50.960;7.138;2024-02-26T07:18:21;98877.69;;;10.87;87.33
41218;BME280;26950;50.960;7.138;2024-02-26T07:20:48;98876.84;;;10.78;88.01
41218;BME280;26950;50.960;7.138;2024-02-26T07:23:14;98882.97;;;10.88;87.96
41218;BME280;26950;50.960;7.138;2024-02-26T07:25:41;98879.47;;;10.80;88.13
41218;BME280;26950;50.960;7.138;2024-02-26T07:28:09;98885.56;;;10.87;87.46
41218;BME280;26950;50.960;7.138;2024-02-26T07:30:37;98881.22;;;10.89;88.11
41218;BME280;26950;50.960;7.138;2024-02-26T07:33:04;98892.59;;;10.63;87.97
41218;BME280;26950;50.960;7.138;2024-02-26T07:35:31;98886.47;;;10.83;87.25
41218;BME280;26950;50.960;7.138;2024-02-26T07:37:58;98887.34;;;10.80;87.68
41218;BME280;26950;50.960;7.138;2024-02-26T07:40:25;98889.97;;;10.85;87.85
41218;BME280;26950;50.960;7.138;2024-02-26T07:42:52;98896.06;;;11.02;86.80
41218;BME280;26950;50.960;7.138;2024-02-26T07:45:18;98894.31;;;11.07;85.36
41218;BME280;26950;50.960;7.138;2024-02-26T07:47:47;98900.47;;;10.78;88.04
41218;BME280;26950;50.960;7.138;2024-02-26T07:50:14;98906.59;;;10.84;88.32
41218;BME280;26950;50.960;7.138;2024-02-26T07:52:40;98907.44;;;10.86;88.78
41218;BME280;26950;50.960;7.138;2024-02-26T07:55:07;98904.81;;;10.92;88.44
41218;BME280;26950;50.960;7.138;2024-02-26T07:57:34;98910.09;;;10.95;87.85
41218;BME280;26950;50.960;7.138;2024-02-26T08:00:01;98893.47;;;10.85;87.81
41218;BME280;26950;50.960;7.138;2024-02-26T08:02:28;98908.31;;;10.85;88.14
41218;BME280;26950;50.960;7.138;2024-02-26T08:04:55;98910.97;;;10.88;88.90
41218;BME280;26950;50.960;7.138;2024-02-26T08:07:22;98916.19;;;10.85;88.30
41218;BME280;26950;50.960;7.138;2024-02-26T08:09:48;98919.69;;;10.84;88.71
41218;BME280;26950;50.960;7.138;2024-02-26T08:12:15;98912.72;;;10.83;89.81
41218;BME280;26950;50.960;7.138;2024-02-26T08:14:41;98916.19;;;10.91;89.52
41218;BME280;26950;50.960;7.138;2024-02-26T08:17:09;98914.44;;;10.85;89.19
41218;BME280;26950;50.960;7.138;2024-02-26T08:19:35;98910.09;;;10.84;88.40
41218;BME280;26950;50.960;7.138;2024-02-26T08:22:04;98919.69;;;10.87;88.86
41218;BME280;26950;50.960;7.138;2024-02-26T08:24:30;98916.19;;;10.80;89.26
41218;BME280;26950;50.960;7.138;2024-02-26T08:26:57;98930.19;;;10.74;88.88
41218;BME280;26950;50.960;7.138;2024-02-26T08:29:23;98925.84;;;10.70;90.08
41218;BME280;26950;50.960;7.138;2024-02-26T08:31:50;98935.44;;;10.71;91.04
41218;BME280;26950;50.960;7.138;2024-02-26T08:34:16;98929.31;;;10.85;90.14
41218;BME280;26950;50.960;7.138;2024-02-26T08:36:43;98936.31;;;10.81;90.15
41218;BME280;26950;50.960;7.138;2024-02-26T08:39:11;98941.53;;;10.87;89.61
41218;BME280;26950;50.960;7.138;2024-02-26T08:41:39;98947.69;;;10.95;88.40
41218;BME280;26950;50.960;7.138;2024-02-26T08:44:05;98953.81;;;10.85;89.53
41218;BME280;26950;50.960;7.138;2024-02-26T08:46:32;98946.81;;;10.86;90.27
41218;BME280;26950;50.960;7.138;2024-02-26T08:48:58;98951.16;;;10.80;90.24
41218;BME280;26950;50.960;7.138;2024-02-26T08:51:25;98955.56;;;10.89;89.57
41218;BME280;26950;50.960;7.138;2024-02-26T08:53:51;98954.66;;;10.81;89.93
41218;BME280;26950;50.960;7.138;2024-02-26T08:56:20;98966.94;;;10.90;90.38
41218;BME280;26950;50.960;7.138;2024-02-26T08:58:47;98961.69;;;10.84;89.53
41218;BME280;26950;50.960;7.138;2024-02-26T09:01:16;98967.81;;;10.75;90.80
41218;BME280;26950;50.960;7.138;2024-02-26T09:03:42;98971.28;;;10.80;90.99
41218;BME280;26950;50.960;7.138;2024-02-26T09:06:09;98972.16;;;10.79;91.13
41218;BME280;26950;50.960;7.138;2024-02-26T09:08:37;98978.28;;;10.84;90.52
41218;BME280;26950;50.960;7.138;2024-02-26T09:11:04;98973.03;;;10.86;89.60
41218;BME280;26950;50.960;7.138;2024-02-26T09:13:32;98982.69;;;10.76;88.86
41218;BME280;26950;50.960;7.138;2024-02-26T09:15:58;98977.38;;;10.53;91.10
41218;BME280;26950;50.960;7.138;2024-02-26T09:18:25;98986.13;;;10.52;92.58
41218;BME280;26950;50.960;7.138;2024-02-26T09:20:54;98982.63;;;10.62;92.46
41218;BME280;26950;50.960;7.138;2024-02-26T09:23:20;98993.19;;;10.82;91.77
41218;BME280;26950;50.960;7.138;2024-02-26T09:25:47;98984.44;;;10.75;90.71
41218;BME280;26950;50.960;7.138;2024-02-26T09:28:13;99001.91;;;10.75;90.68
41218;BME280;26950;50.960;7.138;2024-02-26T09:30:43;99008.06;;;10.95;90.18
41218;BME280;26950;50.960;7.138;2024-02-26T09:33:09;99005.41;;;10.97;89.36
41218;BME280;26950;50.960;7.138;2024-02-26T09:35:37;99001.91;;;11.04;90.04
41218;BME280;26950;50.960;7.138;2024-02-26T09:38:03;99010.66;;;11.06;89.27
41218;BME280;26950;50.960;7.138;2024-02-26T09:40:30;99009.81;;;11.15;88.25
41218;BME280;26950;50.960;7.138;2024-02-26T09:42:59;99012.41;;;10.89;87.85
41218;BME280;26950;50.960;7.138;2024-02-26T09:45:28;99026.41;;;10.82;89.01
41218;BME280;26950;50.960;7.138;2024-02-26T09:47:56;99027.25;;;10.67;91.31
41218;BME280;26950;50.960;7.138;2024-02-26T09:50:24;99020.28;;;10.75;90.79
41218;BME280;26950;50.960;7.138;2024-02-26T09:52:51;99010.66;;;10.89;90.06
41218;BME280;26950;50.960;7.138;2024-02-26T09:55:17;99031.66;;;11.00;90.63
41218;BME280;26950;50.960;7.138;2024-02-26T09:57:45;99022.94;;;11.07;89.76
41218;BME280;26950;50.960;7.138;2024-02-26T10:00:16;99033.41;;;11.04;89.12
41218;BME280;26950;50.960;7.138;2024-02-26T10:02:45;99029.06;;;11.07;88.63
41218;BME280;26950;50.960;7.138;2024-02-26T10:05:17;99032.53;;;11.11;88.83
41218;BME280;26950;50.960;7.138;2024-02-26T10:07:44;99036.91;;;11.04;88.36
41218;BME280;26950;50.960;7.138;2024-02-26T10:10:10;99039.53;;;11.06;89.20
41218;BME280;26950;50.960;7.138;2024-02-26T10:12:37;99041.31;;;11.19;88.29
41218;BME280;26950;50.960;7.138;2024-02-26T10:15:04;99038.69;;;11.25;88.84
41218;BME280;26950;50.960;7.138;2024-02-26T10:17:31;99047.44;;;11.15;89.09
41218;BME280;26950;50.960;7.138;2024-02-26T10:20:11;99054.44;;;11.13;88.88
41218;BME280;26950;50.960;7.138;2024-02-26T10:22:39;99049.19;;;11.25;87.82
41218;BME280;26950;50.960;7.138;2024-02-26T10:25:06;99053.56;;;11.26;87.88
41218;BME280;26950;50.960;7.138;2024-02-26T10:27:33;99060.56;;;11.38;87.42
41218;BME280;26950;50.960;7.138;2024-02-26T10:30:02;99060.56;;;11.38;87.35
41218;BME280;26950;50.960;7.138;2024-02-26T10:32:29;99061.41;;;11.54;86.41
41218;BME280;26950;50.960;7.138;2024-02-26T10:34:56;99057.94;;;11.50;86.77
41218;BME280;26950;50.960;7.138;2024-02-26T10:37:23;99052.69;;;11.46;85.05
41218;BME280;26950;50.960;7.138;2024-02-26T10:39:51;99058.78;;;11.42;86.42
41218;BME280;26950;50.960;7.138;2024-02-26T10:42:18;99057.91;;;11.43;86.64
41218;BME280;26950;50.960;7.138;2024-02-26T10:44:45;99062.28;;;11.48;86.72
41218;BME280;26950;50.960;7.138;2024-02-26T10:47:14;99070.16;;;11.56;85.97
41218;BME280;26950;50.960;7.138;2024-02-26T10:49:45;99071.94;;;11.57;85.29
41218;BME280;26950;50.960;7.138;2024-02-26T10:52:12;99075.44;;;11.57;86.47
41218;BME280;26950;50.960;7.138;2024-02-26T10:54:41;99077.16;;;11.61;87.72
41218;BME280;26950;50.960;7.138;2024-02-26T10:57:11;99081.53;;;11.72;87.13
41218;BME280;26950;50.960;7.138;2024-02-26T10:59:38;99076.28;;;11.73;86.25
41218;BME280;26950;50.960;7.138;2024-02-26T11:02:07;99076.28;;;11.72;86.21
41218;BME280;26950;50.960;7.138;2024-02-26T11:04:36;99083.31;;;11.48;87.35
41218;BME280;26950;50.960;7.138;2024-02-26T11:07:04;99060.53;;;11.47;86.04
41218;BME280;26950;50.960;7.138;2024-02-26T11:09:32;99090.28;;;11.66;86.78
41218;BME280;26950;50.960;7.138;2024-02-26T11:11:59;99087.69;;;11.60;85.05
41218;BME280;26950;50.960;7.138;2024-02-26T11:14:29;99092.91;;;11.74;85.81
41218;BME280;26950;50.960;7.138;2024-02-26T11:16:57;99100.78;;;11.75;85.91
41218;BME280;26950;50.960;7.138;2024-02-26T11:19:24;99105.19;;;11.70;85.46
41218;BME280;26950;50.960;7.138;2024-02-26T11:21:51;99113.06;;;11.67;85.12
41218;BME280;26950;50.960;7.138;2024-02-26T11:24:17;99115.72;;;11.64;86.39
41218;BME280;26950;50.960;7.138;2024-02-26T11:26:47;99093.81;;;11.53;86.36
41218;BME280;26950;50.960;7.138;2024-02-26T11:29:18;99108.66;;;11.80;86.77
41218;BME280;26950;50.960;7.138;2024-02-26T11:31:48;99104.34;;;11.88;85.82
41218;BME280;26950;50.960;7.138;2024-02-26T11:34:16;99114.81;;;11.94;85.72
41218;BME280;26950;50.960;7.138;2024-02-26T11:36:42;99113.06;;;11.92;85.39
41218;BME280;26950;50.960;7.138;2024-02-26T11:39:11;99120.97;;;11.92;85.95
41218;BME280;26950;50.960;7.138;2024-02-26T11:41:38;99122.72;;;11.90;84.04
41218;BME280;26950;50.960;7.138;2024-02-26T11:44:04;99127.94;;;11.80;84.91
41218;BME280;26950;50.960;7.138;2024-02-26T11:46:33;99123.59;;;11.87;85.20
41218;BME280;26950;50.960;7.138;2024-02-26T11:49:02;99132.34;;;11.89;86.03
41218;BME280;26950;50.960;7.138;2024-02-26T11:51:32;99128.81;;;11.79;85.93
41218;BME280;26950;50.960;7.138;2024-02-26T11:54:00;99135.84;;;11.96;85.60
41218;BME280;26950;50.960;7.138;2024-02-26T11:56:26;99128.84;;;12.02;86.74
41218;BME280;26950;50.960;7.138;2024-02-26T11:58:58;99111.31;;;11.92;85.62
41218;BME280;26950;50.960;7.138;2024-02-26T12:01:41;99130.59;;;11.97;86.24
41218;BME280;26950;50.960;7.138;2024-02-26T12:04:12;99127.09;;;11.95;86.26
41218;BME280;26950;50.960;7.138;2024-02-26T12:06:45;99134.06;;;12.05;85.19
41218;BME280;26950;50.960;7.138;2024-02-26T12:09:12;99136.69;;;11.79;87.17
41218;BME280;26950;50.960;7.138;2024-02-26T12:11:39;99141.97;;;11.73;87.75
41218;BME280;26950;50.960;7.138;2024-02-26T12:14:07;99138.47;;;11.94;88.91
41218;BME280;26950;50.960;7.138;2024-02-26T12:16:35;99130.56;;;12.05;89.03
41218;BME280;26950;50.960;7.138;2024-02-26T12:19:04;99138.44;;;12.17;88.89
41218;BME280;26950;50.960;7.138;2024-02-26T12:21:33;99139.31;;;12.21;88.69
41218;BME280;26950;50.960;7.138;2024-02-26T12:24:09;99147.97;;;12.49;86.31
41218;BME280;26950;50.960;7.138;2024-02-26T12:26:36;99144.50;;;12.51;85.79
41218;BME280;26950;50.960;7.138;2024-02-26T12:29:03;99160.22;;;12.63;85.20
41218;BME280;26950;50.960;7.138;2024-02-26T12:31:29;99150.59;;;12.55;84.19
41218;BME280;26950;50.960;7.138;2024-02-26T12:33:56;99148.88;;;12.48;86.25
41218;BME280;26950;50.960;7.138;2024-02-26T12:36:23;99165.56;;;12.45;87.07
41218;BME280;26950;50.960;7.138;2024-02-26T12:38:51;99170.78;;;12.54;85.86
41218;BME280;26950;50.960;7.138;2024-02-26T12:41:17;99176.91;;;12.58;85.50
41218;BME280;26950;50.960;7.138;2024-02-26T12:43:44;99178.59;;;12.69;85.22
41218;BME280;26950;50.960;7.138;2024-02-26T12:46:11;99179.56;;;12.52;87.07
41218;BME280;26950;50.960;7.138;2024-02-26T12:48:38;99177.78;;;12.58;84.69
41218;BME280;26950;50.960;7.138;2024-02-26T12:51:04;99188.28;;;12.71;84.29
41218;BME280;26950;50.960;7.138;2024-02-26T12:53:31;99191.75;;;12.74;84.78
41218;BME280;26950;50.960;7.138;2024-02-26T12:55:59;99197.06;;;12.63;85.29
41218;BME280;26950;50.960;7.138;2024-02-26T12:58:26;99201.44;;;12.66;83.40
41218;BME280;26950;50.960;7.138;2024-02-26T13:00:53;99198.78;;;12.71;84.91